createdAt,value
2022-12-04T00:04:22.856Z,15.68
2022-12-04T00:06:52.733Z,17.52
2022-12-04T00:09:22.497Z,15.40
2022-12-04T00:11:49.080Z,16.10
2022-12-04T00:14:32.580Z,15.35
2022-12-04T00:16:59.169Z,15.07
2022-12-04T00:19:25.735Z,15.63
2022-12-04T00:21:52.299Z,16.83
2022-12-04T00:24:18.899Z,13.80
2022-12-04T00:26:45.463Z,11.75
2022-12-04T00:32:01.139Z,13.10
2022-12-04T00:34:28.252Z,12.70
2022-12-04T00:36:54.869Z,11.75
2022-12-04T00:39:21.444Z,11.35
2022-12-04T00:41:48.011Z,11.02
2022-12-04T00:49:39.633Z,10.38
2022-12-04T00:52:06.203Z,10.77
2022-12-04T00:54:32.905Z,12.00
2022-12-04T00:56:59.436Z,11.10
2022-12-04T00:59:26.012Z,11.73
2022-12-04T01:01:52.590Z,11.10
2022-12-04T01:04:19.245Z,11.38
2022-12-04T01:06:46.774Z,10.88
2022-12-04T01:09:13.342Z,10.43
2022-12-04T01:11:39.940Z,11.05
2022-12-04T01:22:09.994Z,11.10
2022-12-04T01:24:36.619Z,10.10
2022-12-04T01:27:03.252Z,10.82
2022-12-04T01:29:29.833Z,12.27
2022-12-04T01:31:56.503Z,11.57
2022-12-04T01:34:25.150Z,12.00
2022-12-04T01:36:52.259Z,11.60
2022-12-04T01:39:19.148Z,11.73
2022-12-04T01:41:45.861Z,11.73
2022-12-04T01:44:15.505Z,12.73
2022-12-04T01:46:44.560Z,12.55
2022-12-04T01:49:18.312Z,12.80
2022-12-04T01:52:20.956Z,13.05
2022-12-04T01:54:55.458Z,13.38
2022-12-04T01:57:23.832Z,12.32
2022-12-04T01:59:55.284Z,12.75
2022-12-04T02:02:37.401Z,13.00
2022-12-04T02:07:39.096Z,14.40
2022-12-04T02:10:08.704Z,13.65
2022-12-04T02:12:44.243Z,12.65
2022-12-04T02:15:22.313Z,11.68
2022-12-04T02:18:25.895Z,12.13
2022-12-04T02:21:19.182Z,13.02
2022-12-04T02:24:23.577Z,9.90
2022-12-04T02:26:53.872Z,10.60
2022-12-04T02:29:34.306Z,11.02
2022-12-04T02:34:42.052Z,9.13
2022-12-04T02:37:13.013Z,10.50
2022-12-04T02:40:07.720Z,9.95
2022-12-04T02:42:42.263Z,9.48
2022-12-04T02:45:39.706Z,8.50
2022-12-04T02:48:07.858Z,9.38
2022-12-04T02:50:37.811Z,8.35
2022-12-04T02:53:18.078Z,8.60
2022-12-04T02:58:36.478Z,8.05
2022-12-04T03:01:19.237Z,7.95
2022-12-04T03:04:15.601Z,8.70
2022-12-04T03:06:44.449Z,8.60
2022-12-04T03:09:34.938Z,7.72
2022-12-04T03:12:11.932Z,7.95
2022-12-04T03:14:42.807Z,8.55
2022-12-04T03:17:16.621Z,10.52
2022-12-04T03:24:52.746Z,8.20
2022-12-04T03:27:40.781Z,9.65
2022-12-04T03:30:12.315Z,8.77
2022-12-04T03:32:51.012Z,7.95
2022-12-04T03:35:26.144Z,9.35
2022-12-04T03:38:10.929Z,8.40
2022-12-04T03:43:24.643Z,8.00
2022-12-04T03:46:14.449Z,8.30
2022-12-04T03:48:50.864Z,8.25
2022-12-04T03:51:23.893Z,8.43
2022-12-04T03:53:55.900Z,8.05
2022-12-04T03:56:29.888Z,8.55
2022-12-04T03:59:00.503Z,8.23
2022-12-04T04:07:20.208Z,9.07
2022-12-04T04:09:48.039Z,9.30
2022-12-04T04:12:27.361Z,9.82
2022-12-04T04:15:16.024Z,9.05
2022-12-04T04:18:02.786Z,8.68
2022-12-04T04:23:19.592Z,9.18
2022-12-04T04:25:47.455Z,8.65
2022-12-04T04:34:08.221Z,8.57
2022-12-04T04:36:36.818Z,10.23
2022-12-04T04:39:41.736Z,9.27
2022-12-04T04:42:28.379Z,9.45
2022-12-04T04:45:08.625Z,9.65
2022-12-04T04:47:54.499Z,8.60
2022-12-04T04:50:21.977Z,8.18
2022-12-04T04:52:57.823Z,9.20
2022-12-04T05:06:17.369Z,8.43
2022-12-04T05:08:44.294Z,8.13
2022-12-04T05:11:13.755Z,7.88
2022-12-04T05:13:40.504Z,9.02
2022-12-04T05:21:57.464Z,7.38
2022-12-04T05:24:24.042Z,8.50
2022-12-04T05:26:50.688Z,8.18
2022-12-04T05:29:17.269Z,8.05
2022-12-04T05:31:43.864Z,8.40
2022-12-04T05:34:23.248Z,7.57
2022-12-04T05:36:49.798Z,8.00
2022-12-04T05:39:16.345Z,9.25
2022-12-04T05:41:42.911Z,8.63
2022-12-04T05:44:09.506Z,9.02
2022-12-04T05:46:36.195Z,9.23
2022-12-04T05:51:46.546Z,9.63
2022-12-04T05:54:13.211Z,8.70
2022-12-04T05:56:39.800Z,7.75
2022-12-04T05:59:06.352Z,9.70
2022-12-04T06:01:32.970Z,10.48
2022-12-04T06:06:48.505Z,10.15
2022-12-04T06:09:15.103Z,8.73
2022-12-04T06:11:42.682Z,9.02
2022-12-04T06:14:13.096Z,10.00
2022-12-04T06:16:42.186Z,9.88
2022-12-04T06:19:16.202Z,8.40
2022-12-04T06:21:44.132Z,10.43
2022-12-04T06:24:14.401Z,8.85
2022-12-04T06:26:57.564Z,8.95
2022-12-04T06:29:27.627Z,8.82
2022-12-04T06:31:54.353Z,9.50
2022-12-04T06:34:20.963Z,10.65
2022-12-04T06:36:47.605Z,7.97
2022-12-04T06:39:18.730Z,10.15
2022-12-04T06:41:47.399Z,9.40
2022-12-04T06:44:16.876Z,10.07
2022-12-04T06:46:47.098Z,9.15
2022-12-04T06:51:40.972Z,8.82
2022-12-04T06:54:07.973Z,10.07
2022-12-04T06:56:34.873Z,10.88
2022-12-04T06:59:02.955Z,9.23
2022-12-04T07:01:31.825Z,9.25
2022-12-04T07:04:02.125Z,9.00
2022-12-04T07:06:30.996Z,10.38
2022-12-04T07:09:06.454Z,10.10
2022-12-04T07:11:33.682Z,10.45
2022-12-04T07:14:00.216Z,9.75
2022-12-04T07:16:27.980Z,10.55
2022-12-04T07:19:02.101Z,10.82
2022-12-04T07:21:31.312Z,10.73
2022-12-04T07:24:00.339Z,10.57
2022-12-04T07:26:28.377Z,10.52
2022-12-04T07:28:55.504Z,9.32
2022-12-04T07:31:23.780Z,10.88
2022-12-04T07:42:03.847Z,11.52
2022-12-04T07:44:33.221Z,11.07
2022-12-04T07:46:59.938Z,10.68
2022-12-04T07:49:26.850Z,11.13
2022-12-04T07:51:57.099Z,11.07
2022-12-04T07:54:23.698Z,11.15
2022-12-04T07:56:50.274Z,10.63
2022-12-04T07:59:16.812Z,10.05
2022-12-04T08:01:43.437Z,12.10
2022-12-04T08:04:10.690Z,11.48
2022-12-04T08:09:22.275Z,10.95
2022-12-04T08:11:48.865Z,11.82
2022-12-04T08:14:15.577Z,11.43
2022-12-04T08:16:46.017Z,11.18
2022-12-04T08:19:14.908Z,10.10
2022-12-04T08:24:13.922Z,10.73
2022-12-04T08:26:40.578Z,11.85
2022-12-04T08:29:07.593Z,11.50
2022-12-04T08:31:35.621Z,11.88
2022-12-04T08:34:05.251Z,11.68
2022-12-04T08:37:06.679Z,12.55
2022-12-04T08:40:06.780Z,12.13
2022-12-04T08:43:05.949Z,12.40
2022-12-04T08:48:16.730Z,10.70
2022-12-04T08:50:46.262Z,11.95
2022-12-04T08:53:12.871Z,12.35
2022-12-04T08:55:39.441Z,10.65
2022-12-04T08:58:06.007Z,12.98
2022-12-04T09:03:05.354Z,10.88
2022-12-04T09:05:31.976Z,10.93
2022-12-04T09:07:58.588Z,11.93
2022-12-04T09:10:25.170Z,10.65
2022-12-04T09:12:51.824Z,11.75
2022-12-04T09:20:49.057Z,9.18
2022-12-04T09:23:15.631Z,11.48
2022-12-04T09:25:42.254Z,11.35
2022-12-04T09:28:08.792Z,11.45
2022-12-04T09:30:35.370Z,12.32
2022-12-04T09:33:01.951Z,11.82
2022-12-04T09:35:29.986Z,10.30
2022-12-04T09:37:57.244Z,10.15
2022-12-04T09:40:33.719Z,12.82
2022-12-04T09:43:18.650Z,9.77
2022-12-04T09:45:51.512Z,10.27
2022-12-04T09:51:00.732Z,11.38
2022-12-04T09:53:30.071Z,10.85
2022-12-04T09:56:02.238Z,11.02
2022-12-04T09:58:41.159Z,10.93
2022-12-04T10:01:31.221Z,11.02
2022-12-04T10:04:04.282Z,13.77
2022-12-04T10:06:40.717Z,10.35
2022-12-04T10:21:01.993Z,10.75
2022-12-04T10:23:55.513Z,10.82
2022-12-04T10:26:25.767Z,10.07
2022-12-04T10:29:02.772Z,10.43
2022-12-04T10:31:30.711Z,11.70
2022-12-04T10:34:03.753Z,10.35
2022-12-04T10:36:35.216Z,10.98
2022-12-04T10:44:47.476Z,10.90
2022-12-04T10:47:14.387Z,10.95
2022-12-04T10:49:41.773Z,10.65
2022-12-04T10:52:12.958Z,10.55
2022-12-04T10:54:50.099Z,10.38
2022-12-04T10:57:16.927Z,10.40
2022-12-04T10:59:57.076Z,10.93
2022-12-04T11:02:27.145Z,10.98
2022-12-04T11:05:01.728Z,10.82
2022-12-04T11:07:31.093Z,11.13
2022-12-04T11:10:21.034Z,11.90
2022-12-04T11:12:55.110Z,10.40
2022-12-04T11:15:22.169Z,11.30
2022-12-04T11:17:48.835Z,11.07
2022-12-04T11:20:18.543Z,11.60
2022-12-04T11:22:54.213Z,11.93
2022-12-04T11:25:22.193Z,9.80
2022-12-04T11:27:51.071Z,9.95
2022-12-04T11:30:37.728Z,10.73
2022-12-04T11:33:14.400Z,10.43
2022-12-04T11:35:41.042Z,10.25
2022-12-04T11:38:13.666Z,10.95
2022-12-04T11:40:53.069Z,10.02
2022-12-04T11:43:20.374Z,10.15
2022-12-04T11:46:01.597Z,11.77
2022-12-04T11:48:31.440Z,10.30
2022-12-04T11:53:59.887Z,9.55
2022-12-04T11:56:35.713Z,11.02
2022-12-04T11:59:11.280Z,10.75
2022-12-04T12:02:26.185Z,9.75
2022-12-04T12:05:16.023Z,10.80
2022-12-04T12:08:01.883Z,11.27
2022-12-04T12:10:44.439Z,10.85
2022-12-04T12:13:14.465Z,9.85
2022-12-04T12:15:52.614Z,11.10
2022-12-04T12:18:39.660Z,9.32
2022-12-04T12:21:12.857Z,10.73
2022-12-04T12:29:10.690Z,10.65
2022-12-04T12:32:03.174Z,9.10
2022-12-04T12:34:35.589Z,10.40
2022-12-04T12:37:24.367Z,11.25
2022-12-04T12:39:58.843Z,10.82
2022-12-04T12:42:30.879Z,11.23
2022-12-04T12:45:01.714Z,9.95
2022-12-04T12:50:21.870Z,9.23
2022-12-04T12:53:05.471Z,10.38
2022-12-04T12:55:56.644Z,10.73
2022-12-04T12:58:56.048Z,11.45
2022-12-04T13:01:45.632Z,11.20
2022-12-04T13:04:33.577Z,11.05
2022-12-04T13:07:18.592Z,10.75
2022-12-04T13:09:50.636Z,10.48
2022-12-04T13:12:18.527Z,11.32
2022-12-04T13:14:49.025Z,10.63
2022-12-04T13:19:53.862Z,10.77
2022-12-04T13:22:41.863Z,10.90
2022-12-04T13:25:21.051Z,10.85
2022-12-04T13:27:57.880Z,12.50
2022-12-04T13:30:53.124Z,10.93
2022-12-04T13:33:32.367Z,11.15
2022-12-04T13:36:23.882Z,11.07
2022-12-04T13:39:04.878Z,11.30
2022-12-04T13:47:11.456Z,10.88
2022-12-04T13:49:42.090Z,11.77
2022-12-04T13:52:40.801Z,11.70
2022-12-04T13:55:37.184Z,11.60
2022-12-04T13:58:26.110Z,11.63
2022-12-04T14:01:05.473Z,12.05
2022-12-04T14:03:35.850Z,13.00
2022-12-04T14:06:05.416Z,13.10
2022-12-04T14:08:35.720Z,13.40
2022-12-04T14:14:07.946Z,11.65
2022-12-04T14:19:11.749Z,12.40
2022-12-04T14:21:43.643Z,12.82
2022-12-04T14:24:25.247Z,13.70
2022-12-04T14:29:54.739Z,12.60
2022-12-04T14:34:57.098Z,11.95
2022-12-04T14:37:28.646Z,13.40
2022-12-04T14:39:56.133Z,14.65
2022-12-04T14:42:26.518Z,11.68
2022-12-04T14:45:02.098Z,12.57
2022-12-04T14:48:07.130Z,12.57
2022-12-04T14:50:42.494Z,12.57
2022-12-04T14:58:53.124Z,11.70
2022-12-04T15:01:29.396Z,14.77
2022-12-04T15:03:59.177Z,13.65
2022-12-04T15:06:30.839Z,14.05
2022-12-04T15:09:18.526Z,13.23
2022-12-04T15:12:12.168Z,14.25
2022-12-04T15:14:49.975Z,14.60
2022-12-04T15:19:46.972Z,14.32
2022-12-04T15:22:25.371Z,14.23
2022-12-04T15:24:52.478Z,13.63
2022-12-04T15:27:28.924Z,13.32
2022-12-04T15:29:59.334Z,13.60
2022-12-04T15:32:28.726Z,14.55
2022-12-04T15:43:26.048Z,13.50
2022-12-04T15:45:53.582Z,13.68
2022-12-04T15:48:24.979Z,14.48
2022-12-04T15:51:03.336Z,13.88
2022-12-04T15:53:33.263Z,14.05
2022-12-04T15:58:41.338Z,14.60
2022-12-04T16:01:10.679Z,14.73
2022-12-04T16:03:39.935Z,14.38
2022-12-04T16:06:19.435Z,16.92
2022-12-04T16:08:51.677Z,14.48
2022-12-04T16:11:18.302Z,15.02
2022-12-04T16:13:44.908Z,15.23
2022-12-04T16:16:21.433Z,14.80
2022-12-04T16:18:48.236Z,15.50
2022-12-04T16:21:17.413Z,14.70
2022-12-04T16:23:44.898Z,16.50
2022-12-04T16:26:17.045Z,15.25
2022-12-04T16:31:31.659Z,14.90
2022-12-04T16:33:58.294Z,14.38
2022-12-04T16:36:24.887Z,14.63
2022-12-04T16:38:51.605Z,15.27
2022-12-04T16:41:19.498Z,14.25
2022-12-04T16:49:23.374Z,17.83
2022-12-04T16:51:49.959Z,14.40
2022-12-04T16:54:16.655Z,15.18
2022-12-04T16:56:43.275Z,16.25
2022-12-04T16:59:12.208Z,14.77
2022-12-04T17:04:26.116Z,16.85
2022-12-04T17:06:52.857Z,15.57
2022-12-04T17:09:19.511Z,15.02
2022-12-04T17:11:46.210Z,16.83
2022-12-04T17:14:12.915Z,16.90
2022-12-04T17:21:58.225Z,15.75
2022-12-04T17:24:24.776Z,17.52
2022-12-04T17:26:51.401Z,17.17
2022-12-04T17:29:17.964Z,15.90
2022-12-04T17:34:16.411Z,16.83
2022-12-04T17:36:42.942Z,16.35
2022-12-04T17:39:11.526Z,17.85
2022-12-04T17:41:38.064Z,18.13
2022-12-04T17:44:04.807Z,18.55
2022-12-04T17:49:14.408Z,17.92
2022-12-04T17:51:41.086Z,17.05
2022-12-04T17:54:07.973Z,19.50
2022-12-04T17:56:34.678Z,17.30
2022-12-04T17:59:01.301Z,18.52
2022-12-04T18:04:13.721Z,18.85
2022-12-04T18:06:42.284Z,18.92
2022-12-04T18:09:10.783Z,17.20
2022-12-04T18:11:38.976Z,17.27
2022-12-04T18:14:12.623Z,19.50
2022-12-04T18:19:10.642Z,17.58
2022-12-04T18:21:37.297Z,18.88
2022-12-04T18:24:04.907Z,20.35
2022-12-04T18:26:36.963Z,18.83
2022-12-04T18:29:04.716Z,19.45
2022-12-04T18:39:47.500Z,20.38
2022-12-04T18:42:14.075Z,20.40
2022-12-04T18:44:40.797Z,19.90
2022-12-04T18:47:07.458Z,19.55
2022-12-04T18:52:08.522Z,20.88
2022-12-04T18:54:35.103Z,20.08
2022-12-04T18:57:01.915Z,20.60
2022-12-04T18:59:29.083Z,18.75
2022-12-04T19:01:55.912Z,18.98
2022-12-04T19:04:30.452Z,21.27
2022-12-04T19:06:57.072Z,20.27
2022-12-04T19:10:09.888Z,19.75
2022-12-04T19:12:13.649Z,19.25
2022-12-04T19:14:40.410Z,20.17
2022-12-04T19:17:07.339Z,20.00
2022-12-04T19:19:33.952Z,21.58
2022-12-04T19:22:01.129Z,21.25
2022-12-04T19:24:27.781Z,21.30
2022-12-04T19:26:54.644Z,21.75
2022-12-04T19:29:21.223Z,19.63
2022-12-04T19:31:47.882Z,19.77
2022-12-04T19:39:35.433Z,20.48
2022-12-04T19:42:02.055Z,19.90
2022-12-04T19:47:15.190Z,17.17
2022-12-04T19:49:41.879Z,18.67
2022-12-04T19:57:15.960Z,17.58
2022-12-04T19:59:46.336Z,16.08
2022-12-04T20:02:14.395Z,17.88
2022-12-04T20:04:41.136Z,18.40
2022-12-04T20:09:46.018Z,18.30
2022-12-04T20:12:15.422Z,17.58
2022-12-04T20:14:42.025Z,18.20
2022-12-04T20:17:08.768Z,16.85
2022-12-04T20:19:35.433Z,17.73
2022-12-04T20:22:02.037Z,17.23
2022-12-04T20:24:28.614Z,18.00
2022-12-04T20:26:55.412Z,18.60
2022-12-04T20:29:21.973Z,18.33
2022-12-04T20:31:48.606Z,17.92
2022-12-04T20:34:18.169Z,17.65
2022-12-04T20:36:46.256Z,19.85
2022-12-04T20:39:13.976Z,20.05
2022-12-04T20:41:40.995Z,18.77
2022-12-04T20:44:09.401Z,20.63
2022-12-04T20:46:38.173Z,21.63
2022-12-04T20:49:08.710Z,19.35
2022-12-04T20:51:41.421Z,21.10
2022-12-04T20:54:08.958Z,20.83
2022-12-04T20:56:37.078Z,21.65
2022-12-04T20:59:06.402Z,20.92
2022-12-04T21:01:33.405Z,20.27
2022-12-04T21:04:03.348Z,21.08
2022-12-04T21:06:34.818Z,19.70
2022-12-04T21:09:13.671Z,21.10
2022-12-04T21:11:45.443Z,20.73
2022-12-04T21:14:45.531Z,22.08
2022-12-04T21:17:19.139Z,20.90
2022-12-04T21:19:47.044Z,23.05
2022-12-04T21:22:14.486Z,21.67
2022-12-04T21:27:29.629Z,24.13
2022-12-04T21:29:56.429Z,21.15
2022-12-04T21:32:23.200Z,21.15
2022-12-04T21:34:49.925Z,21.08
2022-12-04T21:37:16.492Z,22.88
2022-12-04T21:39:51.734Z,22.33
2022-12-04T21:42:30.577Z,22.02
2022-12-04T21:44:58.522Z,24.45
2022-12-04T21:47:25.530Z,24.45
2022-12-04T21:49:52.143Z,26.10
2022-12-04T21:52:19.782Z,24.40
2022-12-04T21:54:52.238Z,24.70
2022-12-04T21:57:19.636Z,24.42
2022-12-04T21:59:46.377Z,29.60
2022-12-04T22:02:14.161Z,24.88
2022-12-04T22:04:41.339Z,26.30
2022-12-04T22:07:08.004Z,24.58
2022-12-04T22:15:01.284Z,26.35
2022-12-04T22:17:31.081Z,27.77
2022-12-04T22:19:57.926Z,24.27
2022-12-04T22:22:24.621Z,23.48
2022-12-04T22:24:51.180Z,23.85
2022-12-04T22:27:17.747Z,23.73
2022-12-04T22:29:51.731Z,26.15
2022-12-04T22:32:19.135Z,24.00
2022-12-04T22:34:50.461Z,26.02
2022-12-04T22:37:17.504Z,23.80
2022-12-04T22:39:44.126Z,24.40
2022-12-04T22:42:10.670Z,27.77
2022-12-04T22:44:37.264Z,25.08
2022-12-04T22:47:04.092Z,25.40
2022-12-04T22:49:30.736Z,27.00
2022-12-04T22:51:58.062Z,24.95
2022-12-04T22:59:51.252Z,25.73
2022-12-04T23:02:17.822Z,24.15
2022-12-04T23:04:44.522Z,25.80
2022-12-04T23:07:11.149Z,26.75
2022-12-04T23:09:38.082Z,24.88
2022-12-04T23:12:05.187Z,26.98
2022-12-04T23:14:33.595Z,24.40
2022-12-04T23:17:00.225Z,25.95
2022-12-04T23:19:26.878Z,26.25
2022-12-04T23:21:56.941Z,25.90
2022-12-04T23:27:05.205Z,24.48
2022-12-04T23:32:18.696Z,25.08
2022-12-04T23:34:45.624Z,26.80
2022-12-04T23:37:12.178Z,26.23
2022-12-04T23:39:38.748Z,25.63
2022-12-04T23:42:05.343Z,24.52
2022-12-04T23:44:31.924Z,26.27
2022-12-04T23:46:58.668Z,26.58
2022-12-04T23:49:25.311Z,24.38
2022-12-04T23:51:51.925Z,26.20
2022-12-04T23:59:56.604Z,24.92
